Sunday, May 29, 2016
21:07 UTC
  |  Log In   |  Register Free
Airport Search:

Madison Municipal Airport
(KIMS)

Madison Municipal Airport Diagram
No Airport Diagram Available

FAA data valid effective Mar 31 2016 - May 26 2016 (unless otherwise noted).

 
 
 
 
 
 
 
 
 
 
 
 
 
 
Current Aviation Weather for KIMS

Weather Summary


Current weather conditions are not available for IMS - The nearest NOAA weather station is at LOU, (33.3 nm SW from IMS)

The most recent METAR observation for IMS was updated at: 12:53 UTC
METAR for KIMS is not available. Closest METAR is for KLOU
KIMS  (most recent observation was updatred at 29:20 UTC)
292012Z AUTO 22007KT 10SM SCT044 SCT050 BKN085 30/16 A3007 RMK AO1

KLOU  (33.3 nm NE)   (most recent observation was updated at 29:19 UTC)
291953Z 24006KT 10SM SCT050 30/18 A3005 RMK AO2 SLP169 T03000183

TAF for KIMS is not available.
GlobalAir.com is loading additional information.
 Current Weather at LOU
86.0 F° (30.0 C°)

Southwest winds at 6.9 mph
Pressure:
30.05 in
Humidity:
49%
Wind:
Southwest at 6.9 mph
Dew Point:
64.9 F° (18.3 C°)
Visibility:
10.00 mi
IMS NOAA Radar




Find All Airport Services Find A Hotel Find A Rental Car Find A Golf Course Find A Restaurant $100 Hamburger



Airport Weather Forecast for KIMS

Translated METAR for KIMS (2012 UTC)
METAR:
KIMS 292012Z AUTO 22007KT 10SM SCT044 SCT050 BKN085 30/16 A3007 RMK AO1
Conditions at:
KIMS (Madison Muni, IN) observed 2012 UTC 29 May 2016
Temperature:
30°C (86°F)
Dewpoint:
16°C (60.8°F) [RH = 42.8]
Pressure:
30.07 inches Hg (1018.3 mb)
Winds:
from the SW (220 degrees) at 8.1 mph (7 knots: 3.6 m/s)
Visibility:
10 mile(s)
Ceiling:
8,500 feet AGL
Clouds:
Scattered Clouds at 4,400 feet AGL
Scattered Clouds at 5,000 feet AGL
Broken Cloud Cover at 8,500 feet AGL
Remarks:
site is un-manned
site is automated and does NOT have a precipitation sensor

Translated TAF for TAF for IMS is not available. Refer to local area forecast.
FBO's on the Field
FBO Company Facility Photos Services Transportation Aviation Fuel Prices: Prices include tax
Catering Weather Repair Courtesy Rental Type 100LL JetA JetA+ MOGAS 8087
 
City of Madison

Currently rated 5 by 1 person
FS:Shell
Last Updated: May-26
Login to update fuel prices
SS:
Contact City of MadisonMore FBO Information
 
Add another FBO Facility Photos Catering Weather Repair Courtesy Rental Type 100LL JetA JetA+ MOGAS 8087
Services Transportation Aviation Fuel Prices: Prices include tax


model-print
model-print
model-print
model-print